Analomink, Pennsylvania
Current Conditions -  °F | °C
As of 2:53 PM on Tuesday 25 Nov 2014 (Local Time) from KMPO Reporting Station
Clear Clear  
Wind Chill: 40°   Ceiling: Unl
Heat Index: 46°   Visibility: 10mi
Dew Point: 26°   Wind: 15mph
Humidity: 46%   Direction: 280°W
Pressure: 29.95"   Gusts: NA
Location:  41.05°N, 75.22°W
Report Text: KMPO 251953Z AUTO 28013KT 10SM CLR 08/M03 A2995 RMK AO2 SLP147 T00781033
Loading
Personal Weather Stations






























Interactive Weather Map New forecast layout! Learn more

10-Day Weather Forecast

Advertisements
Track Severe Weather on mobile